sensor_id;sensor_type;location;lat;lon;timestamp;temperature;humidity
13652;DHT22;6899;51.546;6.912;2024-02-16T00:01:10;12.10;99.90
13652;DHT22;6899;51.546;6.912;2024-02-16T00:03:39;12.20;99.90
13652;DHT22;6899;51.546;6.912;2024-02-16T00:06:07;12.20;99.90
13652;DHT22;6899;51.546;6.912;2024-02-16T00:08:34;12.20;99.90
13652;DHT22;6899;51.546;6.912;2024-02-16T00:11:04;12.20;99.90
13652;DHT22;6899;51.546;6.912;2024-02-16T00:13:31;12.20;99.90
13652;DHT22;6899;51.546;6.912;2024-02-16T00:15:58;12.30;99.90
13652;DHT22;6899;51.546;6.912;2024-02-16T00:18:25;12.40;99.90
13652;DHT22;6899;51.546;6.912;2024-02-16T00:20:52;12.40;99.90
13652;DHT22;6899;51.546;6.912;2024-02-16T00:23:20;12.40;99.90
13652;DHT22;6899;51.546;6.912;2024-02-16T00:25:48;12.40;99.90
13652;DHT22;6899;51.546;6.912;2024-02-16T00:28:14;12.40;99.90
13652;DHT22;6899;51.546;6.912;2024-02-16T00:30:41;12.30;99.90
13652;DHT22;6899;51.546;6.912;2024-02-16T00:33:08;12.30;99.90
13652;DHT22;6899;51.546;6.912;2024-02-16T00:35:35;12.40;99.90
13652;DHT22;6899;51.546;6.912;2024-02-16T00:38:01;12.40;99.90
13652;DHT22;6899;51.546;6.912;2024-02-16T00:40:30;12.50;99.90
13652;DHT22;6899;51.546;6.912;2024-02-16T00:42:56;12.50;99.90
13652;DHT22;6899;51.546;6.912;2024-02-16T00:45:24;12.50;99.90
13652;DHT22;6899;51.546;6.912;2024-02-16T00:47:50;12.40;99.90
13652;DHT22;6899;51.546;6.912;2024-02-16T00:50:17;12.40;99.90
13652;DHT22;6899;51.546;6.912;2024-02-16T00:52:44;12.40;99.90
13652;DHT22;6899;51.546;6.912;2024-02-16T00:55:11;12.30;99.90
13652;DHT22;6899;51.546;6.912;2024-02-16T00:57:39;12.20;99.90
13652;DHT22;6899;51.546;6.912;2024-02-16T01:00:07;12.10;99.90
13652;DHT22;6899;51.546;6.912;2024-02-16T01:02:35;12.10;99.90
13652;DHT22;6899;51.546;6.912;2024-02-16T01:05:02;12.10;99.90
13652;DHT22;6899;51.546;6.912;2024-02-16T01:07:29;12.10;99.90
13652;DHT22;6899;51.546;6.912;2024-02-16T01:09:57;12.10;99.90
13652;DHT22;6899;51.546;6.912;2024-02-16T01:12:25;12.10;99.90
13652;DHT22;6899;51.546;6.912;2024-02-16T01:14:53;12.10;99.90
13652;DHT22;6899;51.546;6.912;2024-02-16T01:17:20;12.00;99.90
13652;DHT22;6899;51.546;6.912;2024-02-16T01:19:47;12.00;99.90
13652;DHT22;6899;51.546;6.912;2024-02-16T01:22:14;12.00;99.90
13652;DHT22;6899;51.546;6.912;2024-02-16T01:24:41;11.90;99.90
13652;DHT22;6899;51.546;6.912;2024-02-16T01:27:07;11.70;99.90
13652;DHT22;6899;51.546;6.912;2024-02-16T01:29:34;11.70;99.90
13652;DHT22;6899;51.546;6.912;2024-02-16T01:32:02;11.60;99.90
13652;DHT22;6899;51.546;6.912;2024-02-16T01:34:29;11.60;99.90
13652;DHT22;6899;51.546;6.912;2024-02-16T01:36:57;11.70;99.90
13652;DHT22;6899;51.546;6.912;2024-02-16T01:39:23;11.70;99.90
13652;DHT22;6899;51.546;6.912;2024-02-16T01:41:50;11.70;99.90
13652;DHT22;6899;51.546;6.912;2024-02-16T01:44:17;11.70;99.90
13652;DHT22;6899;51.546;6.912;2024-02-16T01:46:44;11.80;99.90
13652;DHT22;6899;51.546;6.912;2024-02-16T01:49:13;11.80;99.90
13652;DHT22;6899;51.546;6.912;2024-02-16T01:51:41;12.00;99.90
13652;DHT22;6899;51.546;6.912;2024-02-16T01:54:10;12.20;99.90
13652;DHT22;6899;51.546;6.912;2024-02-16T01:56:37;12.30;99.90
13652;DHT22;6899;51.546;6.912;2024-02-16T01:59:04;12.30;99.90
13652;DHT22;6899;51.546;6.912;2024-02-16T02:01:31;12.40;99.90
13652;DHT22;6899;51.546;6.912;2024-02-16T02:03:57;12.40;99.90
13652;DHT22;6899;51.546;6.912;2024-02-16T02:06:26;12.30;99.90
13652;DHT22;6899;51.546;6.912;2024-02-16T02:08:52;12.40;99.90
13652;DHT22;6899;51.546;6.912;2024-02-16T02:11:19;12.30;99.90
13652;DHT22;6899;51.546;6.912;2024-02-16T02:13:46;12.30;99.90
13652;DHT22;6899;51.546;6.912;2024-02-16T02:16:13;12.30;99.90
13652;DHT22;6899;51.546;6.912;2024-02-16T02:18:40;12.30;99.90
13652;DHT22;6899;51.546;6.912;2024-02-16T02:21:08;12.30;99.90
13652;DHT22;6899;51.546;6.912;2024-02-16T02:23:36;12.30;99.90
13652;DHT22;6899;51.546;6.912;2024-02-16T02:26:04;12.30;99.90
13652;DHT22;6899;51.546;6.912;2024-02-16T02:28:30;12.30;99.90
13652;DHT22;6899;51.546;6.912;2024-02-16T02:30:59;12.30;99.90
13652;DHT22;6899;51.546;6.912;2024-02-16T02:33:26;12.30;99.90
13652;DHT22;6899;51.546;6.912;2024-02-16T02:35:53;12.20;99.90
13652;DHT22;6899;51.546;6.912;2024-02-16T02:38:20;12.20;99.90
13652;DHT22;6899;51.546;6.912;2024-02-16T02:40:48;12.30;99.90
13652;DHT22;6899;51.546;6.912;2024-02-16T02:43:15;12.30;99.90
13652;DHT22;6899;51.546;6.912;2024-02-16T02:45:44;12.20;99.90
13652;DHT22;6899;51.546;6.912;2024-02-16T02:48:11;12.20;99.90
13652;DHT22;6899;51.546;6.912;2024-02-16T02:50:37;12.10;99.90
13652;DHT22;6899;51.546;6.912;2024-02-16T02:53:04;12.10;99.90
13652;DHT22;6899;51.546;6.912;2024-02-16T02:58:46;12.00;99.90
13652;DHT22;6899;51.546;6.912;2024-02-16T03:01:13;11.90;99.90
13652;DHT22;6899;51.546;6.912;2024-02-16T03:03:40;11.90;99.90
13652;DHT22;6899;51.546;6.912;2024-02-16T03:06:07;11.80;99.90
13652;DHT22;6899;51.546;6.912;2024-02-16T03:08:34;11.70;99.90
13652;DHT22;6899;51.546;6.912;2024-02-16T03:11:01;11.70;99.90
13652;DHT22;6899;51.546;6.912;2024-02-16T03:13:29;11.60;99.90
13652;DHT22;6899;51.546;6.912;2024-02-16T03:16:00;11.70;99.90
13652;DHT22;6899;51.546;6.912;2024-02-16T03:18:29;11.60;99.90
13652;DHT22;6899;51.546;6.912;2024-02-16T03:20:56;11.60;99.90
13652;DHT22;6899;51.546;6.912;2024-02-16T03:23:23;11.60;99.90
13652;DHT22;6899;51.546;6.912;2024-02-16T03:25:50;11.60;99.90
13652;DHT22;6899;51.546;6.912;2024-02-16T03:28:17;11.50;99.90
13652;DHT22;6899;51.546;6.912;2024-02-16T03:30:44;11.50;99.90
13652;DHT22;6899;51.546;6.912;2024-02-16T03:33:12;11.40;99.90
13652;DHT22;6899;51.546;6.912;2024-02-16T03:35:39;11.30;99.90
13652;DHT22;6899;51.546;6.912;2024-02-16T03:38:06;11.20;99.90
13652;DHT22;6899;51.546;6.912;2024-02-16T03:40:33;11.10;99.90
13652;DHT22;6899;51.546;6.912;2024-02-16T03:43:00;11.10;99.90
13652;DHT22;6899;51.546;6.912;2024-02-16T03:45:27;11.20;99.90
13652;DHT22;6899;51.546;6.912;2024-02-16T03:47:53;11.30;99.90
13652;DHT22;6899;51.546;6.912;2024-02-16T03:50:22;11.40;99.90
13652;DHT22;6899;51.546;6.912;2024-02-16T03:52:48;11.50;99.90
13652;DHT22;6899;51.546;6.912;2024-02-16T03:55:15;11.60;99.90
13652;DHT22;6899;51.546;6.912;2024-02-16T03:57:42;11.60;99.90
13652;DHT22;6899;51.546;6.912;2024-02-16T04:00:09;11.50;99.90
13652;DHT22;6899;51.546;6.912;2024-02-16T04:02:38;11.50;99.90
13652;DHT22;6899;51.546;6.912;2024-02-16T04:05:05;11.60;99.90
13652;DHT22;6899;51.546;6.912;2024-02-16T04:07:34;11.70;99.90
13652;DHT22;6899;51.546;6.912;2024-02-16T04:10:01;11.70;99.90
13652;DHT22;6899;51.546;6.912;2024-02-16T04:12:28;11.70;99.90
13652;DHT22;6899;51.546;6.912;2024-02-16T04:14:55;11.70;99.90
13652;DHT22;6899;51.546;6.912;2024-02-16T04:17:21;11.90;99.90
13652;DHT22;6899;51.546;6.912;2024-02-16T04:19:48;11.80;99.90
13652;DHT22;6899;51.546;6.912;2024-02-16T04:22:15;11.80;99.90
13652;DHT22;6899;51.546;6.912;2024-02-16T04:24:43;11.80;99.90
13652;DHT22;6899;51.546;6.912;2024-02-16T04:27:10;11.80;99.90
13652;DHT22;6899;51.546;6.912;2024-02-16T04:29:36;11.70;99.90
13652;DHT22;6899;51.546;6.912;2024-02-16T04:32:04;11.80;99.90
13652;DHT22;6899;51.546;6.912;2024-02-16T04:34:30;11.90;99.90
13652;DHT22;6899;51.546;6.912;2024-02-16T04:36:57;11.80;99.90
13652;DHT22;6899;51.546;6.912;2024-02-16T04:39:24;11.80;99.90
13652;DHT22;6899;51.546;6.912;2024-02-16T04:41:52;11.90;99.90
13652;DHT22;6899;51.546;6.912;2024-02-16T04:44:19;11.80;99.90
13652;DHT22;6899;51.546;6.912;2024-02-16T04:46:45;11.80;99.90
13652;DHT22;6899;51.546;6.912;2024-02-16T04:49:12;11.70;99.90
13652;DHT22;6899;51.546;6.912;2024-02-16T04:51:39;11.70;99.90
13652;DHT22;6899;51.546;6.912;2024-02-16T04:54:06;11.70;99.90
13652;DHT22;6899;51.546;6.912;2024-02-16T04:56:33;11.60;99.90
13652;DHT22;6899;51.546;6.912;2024-02-16T04:59:01;11.70;99.90
13652;DHT22;6899;51.546;6.912;2024-02-16T05:01:27;11.60;99.90
13652;DHT22;6899;51.546;6.912;2024-02-16T05:03:55;11.70;99.90
13652;DHT22;6899;51.546;6.912;2024-02-16T05:06:22;11.60;99.90
13652;DHT22;6899;51.546;6.912;2024-02-16T05:08:48;11.50;99.90
13652;DHT22;6899;51.546;6.912;2024-02-16T05:11:16;11.60;99.90
13652;DHT22;6899;51.546;6.912;2024-02-16T05:13:43;11.60;99.90
13652;DHT22;6899;51.546;6.912;2024-02-16T05:16:11;11.70;99.90
13652;DHT22;6899;51.546;6.912;2024-02-16T05:18:38;11.70;99.90
13652;DHT22;6899;51.546;6.912;2024-02-16T05:21:06;11.90;99.90
13652;DHT22;6899;51.546;6.912;2024-02-16T05:23:33;11.90;99.90
13652;DHT22;6899;51.546;6.912;2024-02-16T05:25:59;11.80;99.90
13652;DHT22;6899;51.546;6.912;2024-02-16T05:28:26;11.90;99.90
13652;DHT22;6899;51.546;6.912;2024-02-16T05:30:53;11.90;99.90
13652;DHT22;6899;51.546;6.912;2024-02-16T05:33:22;11.80;99.90
13652;DHT22;6899;51.546;6.912;2024-02-16T05:35:49;11.90;99.90
13652;DHT22;6899;51.546;6.912;2024-02-16T05:38:20;11.80;99.90
13652;DHT22;6899;51.546;6.912;2024-02-16T05:40:57;11.80;99.90
13652;DHT22;6899;51.546;6.912;2024-02-16T05:43:24;11.80;99.90
13652;DHT22;6899;51.546;6.912;2024-02-16T05:45:51;11.70;99.90
13652;DHT22;6899;51.546;6.912;2024-02-16T05:48:18;11.60;99.90
13652;DHT22;6899;51.546;6.912;2024-02-16T05:50:46;11.60;99.90
13652;DHT22;6899;51.546;6.912;2024-02-16T05:53:13;11.50;99.90
13652;DHT22;6899;51.546;6.912;2024-02-16T05:55:40;11.50;99.90
13652;DHT22;6899;51.546;6.912;2024-02-16T05:58:09;11.50;99.90
13652;DHT22;6899;51.546;6.912;2024-02-16T06:00:37;11.50;99.90
13652;DHT22;6899;51.546;6.912;2024-02-16T06:03:04;11.40;99.90
13652;DHT22;6899;51.546;6.912;2024-02-16T06:05:31;11.40;99.90
13652;DHT22;6899;51.546;6.912;2024-02-16T06:08:00;11.40;99.90
13652;DHT22;6899;51.546;6.912;2024-02-16T06:10:27;11.50;99.90
13652;DHT22;6899;51.546;6.912;2024-02-16T06:12:53;11.50;99.90
13652;DHT22;6899;51.546;6.912;2024-02-16T06:15:20;11.50;99.90
13652;DHT22;6899;51.546;6.912;2024-02-16T06:17:48;11.50;99.90
13652;DHT22;6899;51.546;6.912;2024-02-16T06:20:15;11.50;99.90
13652;DHT22;6899;51.546;6.912;2024-02-16T06:22:42;11.60;99.90
13652;DHT22;6899;51.546;6.912;2024-02-16T06:25:10;11.60;99.90
13652;DHT22;6899;51.546;6.912;2024-02-16T06:27:38;11.60;99.90
13652;DHT22;6899;51.546;6.912;2024-02-16T06:30:06;11.80;99.90
13652;DHT22;6899;51.546;6.912;2024-02-16T06:32:36;11.90;99.90
13652;DHT22;6899;51.546;6.912;2024-02-16T06:35:03;12.00;99.90
13652;DHT22;6899;51.546;6.912;2024-02-16T06:37:30;12.10;99.90
13652;DHT22;6899;51.546;6.912;2024-02-16T06:39:57;12.30;99.90
13652;DHT22;6899;51.546;6.912;2024-02-16T06:42:24;12.30;99.90
13652;DHT22;6899;51.546;6.912;2024-02-16T06:44:51;12.40;99.90
13652;DHT22;6899;51.546;6.912;2024-02-16T06:47:18;12.30;99.90
13652;DHT22;6899;51.546;6.912;2024-02-16T06:49:46;12.30;99.90
13652;DHT22;6899;51.546;6.912;2024-02-16T06:52:12;12.30;99.90
13652;DHT22;6899;51.546;6.912;2024-02-16T06:54:39;12.30;99.90
13652;DHT22;6899;51.546;6.912;2024-02-16T06:57:06;12.30;99.90
13652;DHT22;6899;51.546;6.912;2024-02-16T06:59:33;12.30;99.90
13652;DHT22;6899;51.546;6.912;2024-02-16T07:02:00;12.30;99.90
13652;DHT22;6899;51.546;6.912;2024-02-16T07:04:27;12.30;99.90
13652;DHT22;6899;51.546;6.912;2024-02-16T07:06:54;12.30;99.90
13652;DHT22;6899;51.546;6.912;2024-02-16T07:09:20;12.40;99.90
13652;DHT22;6899;51.546;6.912;2024-02-16T07:11:47;12.40;99.90
13652;DHT22;6899;51.546;6.912;2024-02-16T07:14:15;12.50;99.90
13652;DHT22;6899;51.546;6.912;2024-02-16T07:16:43;12.50;99.90
13652;DHT22;6899;51.546;6.912;2024-02-16T07:19:10;12.50;99.90
13652;DHT22;6899;51.546;6.912;2024-02-16T07:21:38;12.50;99.90
13652;DHT22;6899;51.546;6.912;2024-02-16T07:24:05;12.60;99.90
13652;DHT22;6899;51.546;6.912;2024-02-16T07:26:32;12.60;99.90
13652;DHT22;6899;51.546;6.912;2024-02-16T07:28:59;12.60;99.90
13652;DHT22;6899;51.546;6.912;2024-02-16T07:31:32;12.60;99.90
13652;DHT22;6899;51.546;6.912;2024-02-16T07:34:00;12.60;99.90
13652;DHT22;6899;51.546;6.912;2024-02-16T07:36:27;12.70;99.90
13652;DHT22;6899;51.546;6.912;2024-02-16T07:38:53;12.80;99.90
13652;DHT22;6899;51.546;6.912;2024-02-16T07:41:20;12.90;99.90
13652;DHT22;6899;51.546;6.912;2024-02-16T07:43:47;13.00;99.90
13652;DHT22;6899;51.546;6.912;2024-02-16T07:46:14;13.10;99.90
13652;DHT22;6899;51.546;6.912;2024-02-16T07:48:40;13.20;99.90
13652;DHT22;6899;51.546;6.912;2024-02-16T07:51:08;13.30;99.90
13652;DHT22;6899;51.546;6.912;2024-02-16T07:53:35;13.40;99.90
13652;DHT22;6899;51.546;6.912;2024-02-16T07:56:03;13.40;99.90
13652;DHT22;6899;51.546;6.912;2024-02-16T07:58:30;13.50;99.90
13652;DHT22;6899;51.546;6.912;2024-02-16T08:00:57;13.60;99.90
13652;DHT22;6899;51.546;6.912;2024-02-16T08:03:24;13.60;99.90
13652;DHT22;6899;51.546;6.912;2024-02-16T08:05:51;13.70;99.90
13652;DHT22;6899;51.546;6.912;2024-02-16T08:08:19;13.70;99.90
13652;DHT22;6899;51.546;6.912;2024-02-16T08:10:46;13.80;99.90
13652;DHT22;6899;51.546;6.912;2024-02-16T08:13:12;13.90;99.90
13652;DHT22;6899;51.546;6.912;2024-02-16T08:15:39;13.90;99.90
13652;DHT22;6899;51.546;6.912;2024-02-16T08:18:06;14.00;99.90
13652;DHT22;6899;51.546;6.912;2024-02-16T08:20:33;14.00;99.90
13652;DHT22;6899;51.546;6.912;2024-02-16T08:23:00;14.00;99.90
13652;DHT22;6899;51.546;6.912;2024-02-16T08:25:28;14.10;99.90
13652;DHT22;6899;51.546;6.912;2024-02-16T08:27:55;14.10;99.90
13652;DHT22;6899;51.546;6.912;2024-02-16T08:30:23;14.10;99.90
13652;DHT22;6899;51.546;6.912;2024-02-16T08:32:51;14.10;99.90
13652;DHT22;6899;51.546;6.912;2024-02-16T08:35:17;14.20;99.90
13652;DHT22;6899;51.546;6.912;2024-02-16T08:37:44;14.30;99.90
13652;DHT22;6899;51.546;6.912;2024-02-16T08:40:12;14.50;99.90
13652;DHT22;6899;51.546;6.912;2024-02-16T08:42:42;14.60;99.90
13652;DHT22;6899;51.546;6.912;2024-02-16T08:45:09;14.70;99.90
13652;DHT22;6899;51.546;6.912;2024-02-16T08:47:40;14.70;99.90
13652;DHT22;6899;51.546;6.912;2024-02-16T08:50:07;14.80;99.90
13652;DHT22;6899;51.546;6.912;2024-02-16T08:52:34;14.80;99.90
13652;DHT22;6899;51.546;6.912;2024-02-16T08:55:01;14.90;99.90
13652;DHT22;6899;51.546;6.912;2024-02-16T08:57:28;15.00;99.90
13652;DHT22;6899;51.546;6.912;2024-02-16T08:59:56;15.10;99.90
13652;DHT22;6899;51.546;6.912;2024-02-16T09:02:23;15.20;99.90
13652;DHT22;6899;51.546;6.912;2024-02-16T09:04:49;15.10;99.90
13652;DHT22;6899;51.546;6.912;2024-02-16T09:07:16;15.10;99.90
13652;DHT22;6899;51.546;6.912;2024-02-16T09:09:43;14.90;99.90
13652;DHT22;6899;51.546;6.912;2024-02-16T09:12:10;14.90;99.90
13652;DHT22;6899;51.546;6.912;2024-02-16T09:14:37;15.10;99.90
13652;DHT22;6899;51.546;6.912;2024-02-16T09:17:05;15.20;99.90
13652;DHT22;6899;51.546;6.912;2024-02-16T09:19:32;15.30;99.90
13652;DHT22;6899;51.546;6.912;2024-02-16T09:21:59;15.40;99.90
13652;DHT22;6899;51.546;6.912;2024-02-16T09:24:27;15.30;99.90
13652;DHT22;6899;51.546;6.912;2024-02-16T09:26:55;15.30;99.90
13652;DHT22;6899;51.546;6.912;2024-02-16T09:29:21;15.30;99.90
13652;DHT22;6899;51.546;6.912;2024-02-16T09:31:49;15.40;99.90
13652;DHT22;6899;51.546;6.912;2024-02-16T09:34:18;15.40;99.90
13652;DHT22;6899;51.546;6.912;2024-02-16T09:36:44;15.40;99.90
13652;DHT22;6899;51.546;6.912;2024-02-16T09:39:11;15.40;99.90
13652;DHT22;6899;51.546;6.912;2024-02-16T09:41:41;15.40;99.90
13652;DHT22;6899;51.546;6.912;2024-02-16T09:44:09;15.30;99.90
13652;DHT22;6899;51.546;6.912;2024-02-16T09:46:36;15.30;99.90
13652;DHT22;6899;51.546;6.912;2024-02-16T09:49:04;15.40;99.90
13652;DHT22;6899;51.546;6.912;2024-02-16T09:51:36;15.60;99.90
13652;DHT22;6899;51.546;6.912;2024-02-16T09:54:03;15.60;99.90
13652;DHT22;6899;51.546;6.912;2024-02-16T09:56:30;15.70;99.90
13652;DHT22;6899;51.546;6.912;2024-02-16T09:58:58;15.90;99.90
13652;DHT22;6899;51.546;6.912;2024-02-16T10:01:25;15.90;99.90
13652;DHT22;6899;51.546;6.912;2024-02-16T10:03:52;15.90;99.90
13652;DHT22;6899;51.546;6.912;2024-02-16T10:06:18;15.80;99.90
13652;DHT22;6899;51.546;6.912;2024-02-16T10:08:51;15.80;99.90
13652;DHT22;6899;51.546;6.912;2024-02-16T10:11:20;15.70;99.90
13652;DHT22;6899;51.546;6.912;2024-02-16T10:13:56;15.80;99.90
13652;DHT22;6899;51.546;6.912;2024-02-16T10:16:23;15.90;99.90
13652;DHT22;6899;51.546;6.912;2024-02-16T10:18:50;15.80;99.90
13652;DHT22;6899;51.546;6.912;2024-02-16T10:21:27;15.80;99.90
13652;DHT22;6899;51.546;6.912;2024-02-16T10:24:04;15.70;99.90
13652;DHT22;6899;51.546;6.912;2024-02-16T10:26:33;15.70;99.90
13652;DHT22;6899;51.546;6.912;2024-02-16T10:29:03;15.60;99.90
13652;DHT22;6899;51.546;6.912;2024-02-16T10:31:31;15.50;99.90
13652;DHT22;6899;51.546;6.912;2024-02-16T10:33:59;15.40;99.90
13652;DHT22;6899;51.546;6.912;2024-02-16T10:36:27;15.40;99.90
13652;DHT22;6899;51.546;6.912;2024-02-16T10:38:55;15.50;99.90
13652;DHT22;6899;51.546;6.912;2024-02-16T10:41:26;15.80;99.90
13652;DHT22;6899;51.546;6.912;2024-02-16T10:43:54;15.80;99.90
13652;DHT22;6899;51.546;6.912;2024-02-16T10:46:22;15.90;99.90
13652;DHT22;6899;51.546;6.912;2024-02-16T10:48:49;16.00;99.90
13652;DHT22;6899;51.546;6.912;2024-02-16T10:51:18;15.90;99.90
13652;DHT22;6899;51.546;6.912;2024-02-16T10:53:47;15.70;99.90
13652;DHT22;6899;51.546;6.912;2024-02-16T10:56:14;15.50;99.90
13652;DHT22;6899;51.546;6.912;2024-02-16T10:58:42;15.60;99.90
13652;DHT22;6899;51.546;6.912;2024-02-16T11:01:10;15.50;99.90
13652;DHT22;6899;51.546;6.912;2024-02-16T11:03:38;15.60;99.90
13652;DHT22;6899;51.546;6.912;2024-02-16T11:06:14;15.60;99.90
13652;DHT22;6899;51.546;6.912;2024-02-16T11:08:41;15.40;99.90
13652;DHT22;6899;51.546;6.912;2024-02-16T11:11:08;15.40;99.90
13652;DHT22;6899;51.546;6.912;2024-02-16T11:13:37;15.30;99.90
13652;DHT22;6899;51.546;6.912;2024-02-16T11:16:07;15.20;99.90
13652;DHT22;6899;51.546;6.912;2024-02-16T11:18:37;15.10;99.90
13652;DHT22;6899;51.546;6.912;2024-02-16T11:21:05;15.00;99.90
13652;DHT22;6899;51.546;6.912;2024-02-16T11:23:35;15.00;99.90
13652;DHT22;6899;51.546;6.912;2024-02-16T11:26:03;14.90;99.90
13652;DHT22;6899;51.546;6.912;2024-02-16T11:28:32;14.80;99.90
13652;DHT22;6899;51.546;6.912;2024-02-16T11:30:59;14.80;99.90
13652;DHT22;6899;51.546;6.912;2024-02-16T11:33:28;14.70;99.90
13652;DHT22;6899;51.546;6.912;2024-02-16T11:35:55;14.70;99.90
13652;DHT22;6899;51.546;6.912;2024-02-16T11:38:23;14.60;99.90
13652;DHT22;6899;51.546;6.912;2024-02-16T11:40:54;14.60;99.90
13652;DHT22;6899;51.546;6.912;2024-02-16T11:43:21;14.50;99.90
13652;DHT22;6899;51.546;6.912;2024-02-16T11:45:48;14.50;99.90
13652;DHT22;6899;51.546;6.912;2024-02-16T11:48:19;14.40;99.90
13652;DHT22;6899;51.546;6.912;2024-02-16T11:50:48;14.50;99.90
13652;DHT22;6899;51.546;6.912;2024-02-16T11:53:16;14.50;99.90
13652;DHT22;6899;51.546;6.912;2024-02-16T11:55:46;14.60;99.90
13652;DHT22;6899;51.546;6.912;2024-02-16T11:58:15;14.60;99.90
13652;DHT22;6899;51.546;6.912;2024-02-16T12:00:42;14.60;99.90
13652;DHT22;6899;51.546;6.912;2024-02-16T12:03:09;14.60;99.90
13652;DHT22;6899;51.546;6.912;2024-02-16T12:05:35;14.60;99.90
13652;DHT22;6899;51.546;6.912;2024-02-16T12:08:05;14.50;99.90
13652;DHT22;6899;51.546;6.912;2024-02-16T12:10:32;14.50;99.90
13652;DHT22;6899;51.546;6.912;2024-02-16T12:13:00;14.50;99.90
13652;DHT22;6899;51.546;6.912;2024-02-16T12:15:26;14.50;99.90
13652;DHT22;6899;51.546;6.912;2024-02-16T12:18:00;14.50;99.90
13652;DHT22;6899;51.546;6.912;2024-02-16T12:20:28;14.40;99.90
13652;DHT22;6899;51.546;6.912;2024-02-16T12:22:55;14.40;99.90
13652;DHT22;6899;51.546;6.912;2024-02-16T12:25:23;14.40;99.90
13652;DHT22;6899;51.546;6.912;2024-02-16T12:27:50;14.30;99.90
13652;DHT22;6899;51.546;6.912;2024-02-16T12:30:17;14.30;99.90
13652;DHT22;6899;51.546;6.912;2024-02-16T12:32:44;14.30;99.90
13652;DHT22;6899;51.546;6.912;2024-02-16T12:35:10;14.30;99.90
13652;DHT22;6899;51.546;6.912;2024-02-16T12:37:37;14.30;99.90
13652;DHT22;6899;51.546;6.912;2024-02-16T12:40:05;14.30;99.90
13652;DHT22;6899;51.546;6.912;2024-02-16T12:42:36;14.30;99.90
13652;DHT22;6899;51.546;6.912;2024-02-16T12:45:04;14.30;99.90
13652;DHT22;6899;51.546;6.912;2024-02-16T12:47:30;14.30;99.90
13652;DHT22;6899;51.546;6.912;2024-02-16T12:49:57;14.20;99.90
13652;DHT22;6899;51.546;6.912;2024-02-16T12:52:24;14.20;99.90
13652;DHT22;6899;51.546;6.912;2024-02-16T12:54:52;14.30;99.90
13652;DHT22;6899;51.546;6.912;2024-02-16T12:57:23;14.30;99.90
13652;DHT22;6899;51.546;6.912;2024-02-16T12:59:51;14.30;99.90
13652;DHT22;6899;51.546;6.912;2024-02-16T13:02:18;14.30;99.90
13652;DHT22;6899;51.546;6.912;2024-02-16T13:04:45;14.30;99.90
13652;DHT22;6899;51.546;6.912;2024-02-16T13:07:11;14.30;99.90
13652;DHT22;6899;51.546;6.912;2024-02-16T13:09:38;14.30;99.90
13652;DHT22;6899;51.546;6.912;2024-02-16T13:12:05;14.20;99.90
13652;DHT22;6899;51.546;6.912;2024-02-16T13:14:32;14.20;99.90
13652;DHT22;6899;51.546;6.912;2024-02-16T13:17:00;14.20;99.90
13652;DHT22;6899;51.546;6.912;2024-02-16T13:19:27;14.10;99.90
13652;DHT22;6899;51.546;6.912;2024-02-16T13:21:53;14.10;99.90
13652;DHT22;6899;51.546;6.912;2024-02-16T13:24:20;14.00;99.90
13652;DHT22;6899;51.546;6.912;2024-02-16T13:26:47;14.10;99.90
13652;DHT22;6899;51.546;6.912;2024-02-16T13:29:14;14.00;99.90
13652;DHT22;6899;51.546;6.912;2024-02-16T13:31:40;13.90;99.90
13652;DHT22;6899;51.546;6.912;2024-02-16T13:34:09;13.80;99.90
13652;DHT22;6899;51.546;6.912;2024-02-16T13:36:36;13.70;99.90
13652;DHT22;6899;51.546;6.912;2024-02-16T13:39:02;13.60;99.90
13652;DHT22;6899;51.546;6.912;2024-02-16T13:41:31;13.50;99.90
13652;DHT22;6899;51.546;6.912;2024-02-16T13:43:58;13.40;99.90
13652;DHT22;6899;51.546;6.912;2024-02-16T13:46:25;13.20;99.90
13652;DHT22;6899;51.546;6.912;2024-02-16T13:48:52;13.10;99.90
13652;DHT22;6899;51.546;6.912;2024-02-16T13:51:20;13.00;99.90
13652;DHT22;6899;51.546;6.912;2024-02-16T13:53:47;12.90;99.90
13652;DHT22;6899;51.546;6.912;2024-02-16T13:56:13;12.90;99.90
13652;DHT22;6899;51.546;6.912;2024-02-16T13:58:41;12.80;99.90
13652;DHT22;6899;51.546;6.912;2024-02-16T14:01:07;12.70;99.90
13652;DHT22;6899;51.546;6.912;2024-02-16T14:03:34;12.70;99.90
13652;DHT22;6899;51.546;6.912;2024-02-16T14:06:02;12.70;99.90
13652;DHT22;6899;51.546;6.912;2024-02-16T14:08:30;12.60;99.90
13652;DHT22;6899;51.546;6.912;2024-02-16T14:10:57;12.60;99.90
13652;DHT22;6899;51.546;6.912;2024-02-16T14:13:24;12.50;99.90
13652;DHT22;6899;51.546;6.912;2024-02-16T14:15:51;12.50;99.90
13652;DHT22;6899;51.546;6.912;2024-02-16T14:18:21;12.50;99.90
13652;DHT22;6899;51.546;6.912;2024-02-16T14:20:47;12.50;99.90
13652;DHT22;6899;51.546;6.912;2024-02-16T14:23:14;12.50;99.90
13652;DHT22;6899;51.546;6.912;2024-02-16T14:25:42;12.50;99.90
13652;DHT22;6899;51.546;6.912;2024-02-16T14:28:10;12.50;99.90
13652;DHT22;6899;51.546;6.912;2024-02-16T14:30:37;12.50;99.90
13652;DHT22;6899;51.546;6.912;2024-02-16T14:33:05;12.40;99.90
13652;DHT22;6899;51.546;6.912;2024-02-16T14:35:32;12.40;99.90
13652;DHT22;6899;51.546;6.912;2024-02-16T14:38:01;12.50;99.90
13652;DHT22;6899;51.546;6.912;2024-02-16T14:40:29;12.40;99.90
13652;DHT22;6899;51.546;6.912;2024-02-16T14:42:57;12.40;99.90
13652;DHT22;6899;51.546;6.912;2024-02-16T14:45:24;12.40;99.90
13652;DHT22;6899;51.546;6.912;2024-02-16T14:47:51;12.40;99.90
13652;DHT22;6899;51.546;6.912;2024-02-16T14:50:18;12.40;99.90
13652;DHT22;6899;51.546;6.912;2024-02-16T14:52:45;12.40;99.90
13652;DHT22;6899;51.546;6.912;2024-02-16T14:55:12;12.40;99.90
13652;DHT22;6899;51.546;6.912;2024-02-16T14:57:41;12.40;99.90
13652;DHT22;6899;51.546;6.912;2024-02-16T15:00:10;12.40;99.90
13652;DHT22;6899;51.546;6.912;2024-02-16T15:02:37;12.40;99.90
13652;DHT22;6899;51.546;6.912;2024-02-16T15:05:05;12.50;99.90
13652;DHT22;6899;51.546;6.912;2024-02-16T15:07:32;12.50;99.90
13652;DHT22;6899;51.546;6.912;2024-02-16T15:10:00;12.50;99.90
13652;DHT22;6899;51.546;6.912;2024-02-16T15:12:26;12.50;99.90
13652;DHT22;6899;51.546;6.912;2024-02-16T15:14:53;12.50;99.90
13652;DHT22;6899;51.546;6.912;2024-02-16T15:17:21;12.50;99.90
13652;DHT22;6899;51.546;6.912;2024-02-16T15:19:48;12.40;99.90
13652;DHT22;6899;51.546;6.912;2024-02-16T15:22:16;12.40;99.90
13652;DHT22;6899;51.546;6.912;2024-02-16T15:24:43;12.40;99.90
13652;DHT22;6899;51.546;6.912;2024-02-16T15:27:10;12.30;99.90
13652;DHT22;6899;51.546;6.912;2024-02-16T15:29:37;12.30;99.90
13652;DHT22;6899;51.546;6.912;2024-02-16T15:32:04;12.20;99.90
13652;DHT22;6899;51.546;6.912;2024-02-16T15:34:32;12.20;99.90
13652;DHT22;6899;51.546;6.912;2024-02-16T15:36:59;12.10;99.90
13652;DHT22;6899;51.546;6.912;2024-02-16T15:39:27;12.20;99.90
13652;DHT22;6899;51.546;6.912;2024-02-16T15:41:54;12.20;99.90
13652;DHT22;6899;51.546;6.912;2024-02-16T15:44:21;12.10;99.90
13652;DHT22;6899;51.546;6.912;2024-02-16T15:46:48;12.10;99.90
13652;DHT22;6899;51.546;6.912;2024-02-16T15:49:15;12.00;99.90